Terminal Aerodrome Forecast
Issued by NWS

Home | Current Version | Previous Version | Text Only | Print | Product List | Glossary On
Versions: 1 2 3 4 5 6 7 8 9 10 11 12 13 14 15
000
FTUS45 KGJT 262339
TAFRIL
TAF
KRIL 262339Z 2700/2724 21025G35KT P6SM VCSH SCT150
     FM270300 25015G25KT P6SM VCSH BKN150
     FM270600 32010G18KT P6SM BKN150
     FM271200 35005KT P6SM BKN100
     FM271700 32005KT P6SM VCSH BKN090
     FM272000 33010KT P6SM VCSH BKN120=

USA.gov is the U.S. government's official web portal to all federal, state and local government web resources and services.